East Blacksea — T2ZH3 — position and weather

sailwx.info

Track history (hours):
 
Tides and Currents Weather Stations Pressure Air Temp Water Temp Dewpoint Dewpoint Depression Visibility Wind Speed Wind Dir Waves Ship Positions

East Blacksea

Last reported at 2016-Dec-02 17:10 UTC. Time now 2016-Dec-03 23:56 UTC.
Position N 37°53' E 015°49'.

Length 69 m; draft 3.8 m.

Type: Ship. MMSI: 572341210.

Date/timePositionNaut miles runAvg speedWind from/ knotsBaromVisibWave heightAir tempDewpointWater temp
2016-Dec-02 17:10N 37°53' E 015°49'4 7.2
2016-Dec-02 16:33N 37°54' E 015°44'7 7.1
2016-Dec-02 15:33N 37°59' E 015°37'8 7.8
2016-Dec-02 14:33N 38°06' E 015°35'7 7.5
2016-Dec-02 13:33N 38°14' E 015°36'5 4.9
2016-Dec-02 12:33N 38°19' E 015°37'7 7.1
2016-Dec-02 11:33N 38°19' E 015°28'7 7.2
2016-Dec-02 10:32N 38°19' E 015°19'7 7.5
2016-Dec-02 09:33N 38°19' E 015°09'8 8.0
2016-Dec-02 08:33N 38°19' E 014°59'56 7.6
2016-Dec-02 01:06N 38°23' E 013°47'5 7.6
2016-Dec-02 00:28N 38°23' E 013°41'7 7.5
2016-Dec-01 23:34N 38°23' E 013°32'8 7.5
2016-Dec-01 22:33N 38°23' E 013°23'8 7.7
2016-Dec-01 21:33N 38°23' E 013°13'8 7.6
2016-Dec-01 20:33N 38°24' E 013°03'9 7.5
2016-Dec-01 19:21N 38°26' E 012°52'169 7.3
2016-Nov-30 20:11N 39°04' E 009°21'5 7.5
2016-Nov-30 19:33N 39°06' E 009°15'7 7.0
2016-Nov-30 18:33N 39°09' E 009°07'5 4.7
2016-Nov-30 17:32N 39°13' E 009°03'0 0.0
2016-Nov-30 16:32N 39°13' E 009°03'0 0.0
2016-Nov-30 15:32N 39°13' E 009°03'0 0.0
2016-Nov-30 14:32N 39°13' E 009°03'0 0.0
2016-Nov-30 13:32N 39°13' E 009°03'0 0.0
2016-Nov-30 12:32N 39°13' E 009°03'0 0.0
2016-Nov-30 11:32N 39°13' E 009°03'0 0.0
2016-Nov-30 10:32N 39°13' E 009°03'0 0.0
2016-Nov-30 09:32N 39°13' E 009°03'0 0.0
2016-Nov-30 08:32N 39°13' E 009°03'0 0.0
2016-Nov-30 07:23N 39°13' E 009°03'0 0.0
2016-Nov-30 06:32N 39°13' E 009°03'0 0.0
2016-Nov-30 05:32N 39°13' E 009°03'0 0.0
2016-Nov-30 04:32N 39°13' E 009°03'0 0.0
2016-Nov-30 03:32N 39°13' E 009°03'0 0.0
2016-Nov-30 02:29N 39°13' E 009°03'0 0.0
2016-Nov-30 01:32N 39°13' E 009°03'0 0.0
2016-Nov-30 00:32N 39°13' E 009°03'0 0.0
2016-Nov-29 23:32N 39°13' E 009°03'0 0.0
2016-Nov-29 22:32N 39°13' E 009°03'0 0.0
2016-Nov-29 21:32N 39°13' E 009°03'0 0.0
2016-Nov-29 20:32N 39°13' E 009°03'0 0.0
2016-Nov-29 19:32N 39°13' E 009°03'0 0.0
2016-Nov-29 18:32N 39°13' E 009°03'0 0.0
2016-Nov-29 17:32N 39°13' E 009°03'0 0.0
2016-Nov-29 16:33N 39°13' E 009°03'4 4.0
2016-Nov-29 15:33N 39°10' E 009°06'6 5.7
2016-Nov-29 14:33N 39°04' E 009°09'7 7.2
2016-Nov-29 13:33N 38°59' E 009°03'8 7.0
2016-Nov-29 12:25N 38°53' E 008°55'6 7.0
2016-Nov-29 11:34N 38°50' E 008°48'  
Track history (hours):
 
Tides and Currents Weather Stations Pressure Air Temp Water Temp Dewpoint Dewpoint Depression Visibility Wind Speed Wind Dir Waves Ship Positions

East Blacksea

Last reported at 2016-Dec-02 17:10 UTC. Time now 2016-Dec-03 23:56 UTC.
Position N 37°53' E 015°49'.

Length 69 m; draft 3.8 m.

Type: Ship. MMSI: 572341210.

Date/timePositionNaut miles runAvg speedWind from/ knotsBaromVisibWave heightAir tempDewpointWater temp
2016-Dec-02 17:10N 37°53' E 015°49'4 7.2
2016-Dec-02 16:33N 37°54' E 015°44'7 7.1
2016-Dec-02 15:33N 37°59' E 015°37'8 7.8
2016-Dec-02 14:33N 38°06' E 015°35'7 7.5
2016-Dec-02 13:33N 38°14' E 015°36'5 4.9
2016-Dec-02 12:33N 38°19' E 015°37'7 7.1
2016-Dec-02 11:33N 38°19' E 015°28'7 7.2
2016-Dec-02 10:32N 38°19' E 015°19'7 7.5
2016-Dec-02 09:33N 38°19' E 015°09'8 8.0
2016-Dec-02 08:33N 38°19' E 014°59'56 7.6
2016-Dec-02 01:06N 38°23' E 013°47'5 7.6
2016-Dec-02 00:28N 38°23' E 013°41'7 7.5
2016-Dec-01 23:34N 38°23' E 013°32'8 7.5
2016-Dec-01 22:33N 38°23' E 013°23'8 7.7
2016-Dec-01 21:33N 38°23' E 013°13'8 7.6
2016-Dec-01 20:33N 38°24' E 013°03'9 7.5
2016-Dec-01 19:21N 38°26' E 012°52'169 7.3
2016-Nov-30 20:11N 39°04' E 009°21'5 7.5
2016-Nov-30 19:33N 39°06' E 009°15'7 7.0
2016-Nov-30 18:33N 39°09' E 009°07'5 4.7
2016-Nov-30 17:32N 39°13' E 009°03'0 0.0
2016-Nov-30 16:32N 39°13' E 009°03'0 0.0
2016-Nov-30 15:32N 39°13' E 009°03'0 0.0
2016-Nov-30 14:32N 39°13' E 009°03'0 0.0
2016-Nov-30 13:32N 39°13' E 009°03'0 0.0
2016-Nov-30 12:32N 39°13' E 009°03'0 0.0
2016-Nov-30 11:32N 39°13' E 009°03'0 0.0
2016-Nov-30 10:32N 39°13' E 009°03'0 0.0
2016-Nov-30 09:32N 39°13' E 009°03'0 0.0
2016-Nov-30 08:32N 39°13' E 009°03'0 0.0
2016-Nov-30 07:23N 39°13' E 009°03'0 0.0
2016-Nov-30 06:32N 39°13' E 009°03'0 0.0
2016-Nov-30 05:32N 39°13' E 009°03'0 0.0
2016-Nov-30 04:32N 39°13' E 009°03'0 0.0
2016-Nov-30 03:32N 39°13' E 009°03'0 0.0
2016-Nov-30 02:29N 39°13' E 009°03'0 0.0
2016-Nov-30 01:32N 39°13' E 009°03'0 0.0
2016-Nov-30 00:32N 39°13' E 009°03'0 0.0
2016-Nov-29 23:32N 39°13' E 009°03'0 0.0
2016-Nov-29 22:32N 39°13' E 009°03'0 0.0
2016-Nov-29 21:32N 39°13' E 009°03'0 0.0
2016-Nov-29 20:32N 39°13' E 009°03'0 0.0
2016-Nov-29 19:32N 39°13' E 009°03'0 0.0
2016-Nov-29 18:32N 39°13' E 009°03'0 0.0
2016-Nov-29 17:32N 39°13' E 009°03'0 0.0
2016-Nov-29 16:33N 39°13' E 009°03'4 4.0
2016-Nov-29 15:33N 39°10' E 009°06'6 5.7
2016-Nov-29 14:33N 39°04' E 009°09'7 7.2
2016-Nov-29 13:33N 38°59' E 009°03'8 7.0
2016-Nov-29 12:25N 38°53' E 008°55'6 7.0
2016-Nov-29 11:34N 38°50' E 008°48'  

Dump ship's entire track history